Time;durP1;ratioP1;P1;durP2;ratioP2;P2;SDS_P1;SDS_P2;PMS_P1;PMS_P2;Temp;Humidity;BMP_temperature;BMP_pressure;BME280_temperature;BME280_humidity;BME280_pressure;Samples;Min_cycle;Max_cycle;Signal;HPM_P1;HPM_P2
2021/05/31 00:00:57;;;;;;;2.83;1.65;;;14.30;58.00;;;;;;5053356;28;20036;-77
2021/05/31 00:03:22;;;;;;;3.10;1.50;;;14.30;58.40;;;;;;5055083;28;20040;-77
2021/05/31 00:05:48;;;;;;;3.45;1.60;;;14.30;58.40;;;;;;5054563;28;20441;-77
2021/05/31 00:08:14;;;;;;;3.88;1.70;;;14.30;58.80;;;;;;5053100;28;20040;-77
2021/05/31 00:10:40;;;;;;;1.88;1.30;;;14.30;58.70;;;;;;5053507;28;20382;-77
2021/05/31 00:13:05;;;;;;;3.40;1.60;;;14.30;58.90;;;;;;5054099;28;20025;-77
2021/05/31 00:15:32;;;;;;;2.33;1.55;;;14.20;58.90;;;;;;5053414;28;20029;-77
2021/05/31 00:17:58;;;;;;;4.28;1.80;;;14.20;59.10;;;;;;5053964;28;20039;-78
2021/05/31 00:20:24;;;;;;;2.40;1.38;;;14.20;59.20;;;;;;5037029;28;20115;-77
2021/05/31 00:22:50;;;;;;;3.40;1.80;;;14.10;59.00;;;;;;5054281;28;20131;-77
2021/05/31 00:25:16;;;;;;;2.28;1.38;;;14.10;59.30;;;;;;5053739;28;20147;-77
2021/05/31 00:27:42;;;;;;;3.80;1.58;;;14.10;59.80;;;;;;5036705;28;20025;-77
2021/05/31 00:30:10;;;;;;;2.20;1.58;;;14.10;60.00;;;;;;5053827;28;20029;-77
2021/05/31 00:32:36;;;;;;;2.47;1.50;;;14.00;59.90;;;;;;5036384;28;20029;-77
2021/05/31 00:35:04;;;;;;;3.30;1.60;;;14.00;60.30;;;;;;5035716;28;20032;-77
2021/05/31 00:37:30;;;;;;;3.80;1.73;;;13.90;59.60;;;;;;5053974;28;20033;-77
2021/05/31 00:39:55;;;;;;;3.38;1.73;;;13.90;59.80;;;;;;5052638;28;20124;-77
2021/05/31 00:42:21;;;;;;;4.30;1.63;;;13.90;59.60;;;;;;5054138;28;20112;-77
2021/05/31 00:44:47;;;;;;;2.00;1.67;;;13.80;60.20;;;;;;5053126;28;20025;-78
2021/05/31 00:47:12;;;;;;;5.35;2.00;;;13.60;60.80;;;;;;5053583;28;20514;-77
2021/05/31 00:49:38;;;;;;;2.97;1.45;;;13.50;62.00;;;;;;5052910;28;20028;-77
2021/05/31 00:52:06;;;;;;;2.75;1.60;;;13.40;62.30;;;;;;5052264;28;20382;-77
2021/05/31 00:54:32;;;;;;;2.03;1.73;;;13.40;62.10;;;;;;5053956;28;20556;-77
2021/05/31 00:56:58;;;;;;;4.55;1.63;;;13.30;62.40;;;;;;5052228;28;20060;-77
2021/05/31 00:59:24;;;;;;;3.63;1.75;;;13.30;62.60;;;;;;5052560;28;20171;-77
2021/05/31 01:01:50;;;;;;;2.67;1.92;;;13.30;62.70;;;;;;5051941;28;20021;-77
2021/05/31 01:04:18;;;;;;;2.45;1.50;;;13.30;62.90;;;;;;5052301;28;20029;-78
2021/05/31 01:06:52;;;;;;;3.38;1.70;;;13.40;62.80;;;;;;5052694;28;20033;-77
2021/05/31 01:09:31;;;;;;;2.55;1.50;;;13.40;62.70;;;;;;5052228;28;20025;-78
2021/05/31 01:12:10;;;;;;;1.98;1.42;;;13.40;61.80;;;;;;5052315;28;20021;-77
2021/05/31 01:14:45;;;;;;;1.90;1.50;;;13.40;61.40;;;;;;5052738;28;20468;-78
2021/05/31 01:17:27;;;;;;;7.57;2.13;;;13.30;61.30;;;;;;5051764;28;20035;-78
2021/05/31 01:19:53;;;;;;;;;;;13.30;61.60;;;;;;5052881;28;20064;-77
2021/05/31 01:22:27;;;;;;;2.22;1.80;;;13.30;62.70;;;;;;5051680;28;19967;-77
2021/05/31 01:25:02;;;;;;;2.53;1.63;;;13.20;62.40;;;;;;5035453;28;20047;-76
2021/05/31 01:27:52;;;;;;;3.80;1.70;;;13.20;62.90;;;;;;5053081;28;20025;-76
2021/05/31 01:30:22;;;;;;;1.60;1.35;;;13.20;62.90;;;;;;5034781;28;20036;-77
2021/05/31 01:32:52;;;;;;;2.60;1.60;;;13.10;62.90;;;;;;5053226;28;20101;-77
2021/05/31 01:35:27;;;;;;;2.45;1.60;;;13.10;62.90;;;;;;5034561;28;20036;-75
2021/05/31 01:37:55;;;;;;;4.78;1.70;;;13.00;63.10;;;;;;5035227;28;20040;-76
2021/05/31 01:40:22;;;;;;;2.33;1.50;;;13.00;63.30;;;;;;5034360;28;20120;-76
2021/05/31 01:42:51;;;;;;;5.43;1.50;;;13.00;63.20;;;;;;5053004;28;20078;-77
2021/05/31 01:45:17;;;;;;;2.85;1.50;;;13.00;63.40;;;;;;5034868;28;20033;-78
2021/05/31 01:47:43;;;;;;;2.13;1.50;;;13.00;64.00;;;;;;5035318;28;20021;-77
2021/05/31 01:50:11;;;;;;;2.10;1.40;;;12.90;63.10;;;;;;5034791;28;20025;-78
2021/05/31 01:52:39;;;;;;;3.13;1.52;;;12.90;64.20;;;;;;5052968;28;20029;-78
2021/05/31 01:55:05;;;;;;;2.90;1.77;;;12.90;63.80;;;;;;5034898;28;20067;-77
2021/05/31 01:57:31;;;;;;;3.10;1.77;;;12.80;64.00;;;;;;5052696;28;20052;-77
2021/05/31 01:59:58;;;;;;;2.47;1.65;;;12.80;64.30;;;;;;5052850;28;20474;-77
2021/05/31 02:02:24;;;;;;;2.58;1.75;;;12.80;64.30;;;;;;5052378;28;20025;-78
2021/05/31 02:04:49;;;;;;;1.90;1.40;;;12.70;64.10;;;;;;5052574;28;20021;-77
2021/05/31 02:07:15;;;;;;;2.95;1.80;;;12.60;64.90;;;;;;5034724;28;20029;-77
2021/05/31 02:09:41;;;;;;;3.25;1.50;;;12.50;65.00;;;;;;5035150;28;20374;-77
2021/05/31 02:12:13;;;;;;;3.85;1.77;;;12.40;65.20;;;;;;5052230;28;20359;-76
2021/05/31 02:15:02;;;;;;;3.22;1.75;;;12.30;65.60;;;;;;5037709;28;20462;-76
2021/05/31 02:17:37;;;;;;;3.60;1.80;;;12.30;65.20;;;;;;5056620;28;20033;-76
2021/05/31 02:20:08;;;;;;;3.33;1.98;;;12.20;66.30;;;;;;5038634;28;20036;-77
2021/05/31 02:22:48;;;;;;;2.70;1.77;;;12.20;66.20;;;;;;5038724;28;20029;-76
2021/05/31 02:25:16;;;;;;;3.38;2.25;;;12.20;65.40;;;;;;5038355;28;20037;-77
2021/05/31 02:27:43;;;;;;;3.42;1.63;;;12.20;65.00;;;;;;5038898;28;20031;-77
2021/05/31 02:30:10;;;;;;;6.38;1.60;;;12.30;65.00;;;;;;5056222;28;20351;-77
2021/05/31 02:32:36;;;;;;;3.25;1.65;;;12.30;65.00;;;;;;5038987;28;20486;-77
2021/05/31 02:35:09;;;;;;;4.45;1.90;;;12.20;65.20;;;;;;5038942;28;20116;-77
2021/05/31 02:37:37;;;;;;;3.00;1.60;;;12.30;65.40;;;;;;5038921;28;20028;-77
2021/05/31 02:40:05;;;;;;;2.72;1.73;;;12.30;65.60;;;;;;5055673;28;20028;-77
2021/05/31 02:42:40;;;;;;;2.45;1.63;;;12.30;65.30;;;;;;5056353;28;20035;-77
2021/05/31 02:45:07;;;;;;;3.40;1.90;;;12.40;65.70;;;;;;5037999;28;20061;-77
2021/05/31 02:47:33;;;;;;;3.40;1.80;;;12.30;65.00;;;;;;5038704;28;20063;-77
2021/05/31 02:49:59;;;;;;;2.28;1.63;;;12.40;65.10;;;;;;5038441;28;20064;-77
2021/05/31 02:52:24;;;;;;;2.00;1.73;;;12.30;65.00;;;;;;5055384;28;20390;-77
2021/05/31 02:54:50;;;;;;;2.97;1.98;;;12.30;65.20;;;;;;5038474;28;20474;-77
2021/05/31 02:57:17;;;;;;;3.13;1.42;;;12.20;65.60;;;;;;5055523;28;20533;-78
2021/05/31 02:59:43;;;;;;;2.22;1.55;;;12.20;65.70;;;;;;5056090;28;20040;-77
2021/05/31 03:02:08;;;;;;;2.15;1.75;;;12.20;66.00;;;;;;5055752;28;20029;-77
2021/05/31 03:04:34;;;;;;;2.90;1.80;;;12.20;65.80;;;;;;5038396;28;20060;-77
2021/05/31 03:06:59;;;;;;;3.15;1.65;;;12.10;65.80;;;;;;5055998;28;20090;-77
2021/05/31 03:09:25;;;;;;;2.47;1.60;;;12.00;66.30;;;;;;5055478;28;20167;-77
2021/05/31 03:11:50;;;;;;;2.88;1.63;;;12.00;66.60;;;;;;5038515;28;20466;-77
2021/05/31 03:14:16;;;;;;;4.20;1.90;;;11.80;67.00;;;;;;5055208;28;20029;-77
2021/05/31 03:16:42;;;;;;;4.32;2.03;;;11.70;67.40;;;;;;5055954;28;20356;-77
2021/05/31 03:19:07;;;;;;;5.18;1.70;;;11.70;67.70;;;;;;5037870;28;20530;-77
2021/05/31 03:21:33;;;;;;;3.33;1.70;;;11.70;68.00;;;;;;5055948;28;20421;-77
2021/05/31 03:23:59;;;;;;;3.22;1.65;;;11.60;67.90;;;;;;5054190;28;20071;-77
2021/05/31 03:26:24;;;;;;;4.70;2.10;;;11.60;67.50;;;;;;5036152;28;20033;-77
2021/05/31 03:28:50;;;;;;;4.03;1.95;;;11.60;67.20;;;;;;5036637;28;20033;-77
2021/05/31 03:31:16;;;;;;;3.15;1.85;;;11.60;67.30;;;;;;5036229;28;20029;-77
2021/05/31 03:33:42;;;;;;;3.65;1.92;;;11.60;67.10;;;;;;5054531;28;20028;-77
2021/05/31 03:36:08;;;;;;;2.78;1.73;;;11.70;67.30;;;;;;5053806;28;20091;-77
2021/05/31 03:38:33;;;;;;;3.13;1.70;;;11.80;67.20;;;;;;5054349;28;20036;-77
2021/05/31 03:40:59;;;;;;;3.83;1.73;;;11.90;66.80;;;;;;5036505;28;20056;-77
2021/05/31 03:43:24;;;;;;;2.65;1.70;;;11.90;66.70;;;;;;5053581;28;20089;-76
2021/05/31 03:45:50;;;;;;;2.92;1.70;;;11.90;66.70;;;;;;5036296;28;20058;-76
2021/05/31 03:48:16;;;;;;;4.32;1.98;;;11.80;66.70;;;;;;5053487;28;20112;-75
2021/05/31 03:50:41;;;;;;;4.60;1.70;;;11.80;67.10;;;;;;5036369;28;20021;-75
2021/05/31 03:53:07;;;;;;;2.88;1.77;;;11.70;67.40;;;;;;5035513;28;20411;-76
2021/05/31 03:55:33;;;;;;;3.60;1.92;;;11.70;66.80;;;;;;5035830;28;20534;-75
2021/05/31 03:58:00;;;;;;;2.88;1.80;;;11.70;67.00;;;;;;5054060;28;20417;-75
2021/05/31 04:00:27;;;;;;;3.08;1.90;;;11.70;66.80;;;;;;5053124;28;20021;-75
2021/05/31 04:02:53;;;;;;;2.58;1.60;;;11.70;66.80;;;;;;5035667;28;20025;-76
2021/05/31 04:05:20;;;;;;;2.92;1.90;;;11.70;66.60;;;;;;5035276;28;20124;-76
2021/05/31 04:13:15;;;;;;;3.08;1.73;;;11.70;66.70;;;;;;5053186;28;20040;-76
2021/05/31 04:15:41;;;;;;;4.05;1.70;;;11.70;66.40;;;;;;5036140;28;20029;-76
2021/05/31 04:18:06;;;;;;;3.67;1.90;;;11.70;66.70;;;;;;5035773;28;20375;-76
2021/05/31 04:20:32;;;;;;;3.83;2.22;;;11.70;66.80;;;;;;5053054;28;20029;-77
2021/05/31 04:25:02;;;;;;;5.85;1.95;;;11.70;66.50;;;;;;5131544;27;20330;-77
2021/05/31 04:27:28;;;;;;;3.88;1.73;;;11.60;66.70;;;;;;5112831;28;20050;-78
2021/05/31 04:29:53;;;;;;;2.72;1.70;;;11.60;66.80;;;;;;5113385;28;20469;-78
2021/05/31 04:32:19;;;;;;;3.00;1.70;;;11.60;66.80;;;;;;5112520;28;20023;-78
2021/05/31 04:34:45;;;;;;;2.70;1.50;;;11.60;66.70;;;;;;5113345;28;20030;-78
2021/05/31 04:37:11;;;;;;;2.65;1.60;;;11.60;66.70;;;;;;5113130;28;20475;-78
2021/05/31 04:39:37;;;;;;;3.55;1.80;;;11.60;66.60;;;;;;5131314;28;20410;-78
2021/05/31 04:42:05;;;;;;;2.83;1.55;;;11.60;67.20;;;;;;5113202;28;20030;-78
2021/05/31 04:44:31;;;;;;;2.78;1.75;;;11.60;66.70;;;;;;5130446;28;20028;-78
2021/05/31 04:46:57;;;;;;;3.08;1.92;;;11.70;66.80;;;;;;5131381;28;20027;-78
2021/05/31 04:49:23;;;;;;;2.10;1.63;;;11.70;67.30;;;;;;5112288;28;20106;-77
2021/05/31 04:51:48;;;;;;;3.03;1.90;;;11.70;67.60;;;;;;5130627;28;20027;-78
2021/05/31 04:54:14;;;;;;;3.08;1.80;;;11.60;66.90;;;;;;5130615;28;20031;-78
2021/05/31 04:56:41;;;;;;;1.90;1.45;;;11.70;67.30;;;;;;5113049;28;20023;-78
2021/05/31 04:59:06;;;;;;;2.80;1.42;;;11.70;67.20;;;;;;5112704;28;20034;-78
2021/05/31 05:01:34;;;;;;;2.13;1.67;;;11.80;67.50;;;;;;5112084;28;20023;-78
2021/05/31 05:03:59;;;;;;;3.65;1.75;;;11.80;67.50;;;;;;5112406;28;20032;-78
2021/05/31 05:06:25;;;;;;;2.72;1.67;;;11.80;67.40;;;;;;5130096;28;20031;-78
2021/05/31 05:08:53;;;;;;;2.47;1.67;;;11.90;67.40;;;;;;5130681;28;20107;-78
2021/05/31 05:11:22;;;;;;;2.13;1.55;;;11.80;68.50;;;;;;5111857;28;20034;-78
2021/05/31 05:13:50;;;;;;;4.95;1.80;;;11.80;68.30;;;;;;5112725;28;20058;-79
2021/05/31 05:16:16;;;;;;;2.70;1.73;;;11.80;68.50;;;;;;5111455;28;20077;-78
2021/05/31 05:18:43;;;;;;;3.05;1.50;;;11.90;68.80;;;;;;5130564;28;20035;-78
2021/05/31 05:21:09;;;;;;;2.08;1.35;;;12.00;68.50;;;;;;5114752;27;20019;-79
2021/05/31 05:23:34;;;;;;;3.60;1.40;;;12.00;68.80;;;;;;5123078;27;20062;-79
2021/05/31 05:26:00;;;;;;;3.55;1.60;;;12.00;68.20;;;;;;5119420;28;20090;-79
2021/05/31 05:28:26;;;;;;;4.18;1.75;;;12.00;67.00;;;;;;5130153;28;20036;-79
2021/05/31 05:30:51;;;;;;;3.15;1.70;;;12.00;67.00;;;;;;5137523;27;20045;-81
2021/05/31 05:33:18;;;;;;;3.90;1.58;;;12.00;66.70;;;;;;5151139;27;20027;-79
2021/05/31 05:35:56;;;;;;;2.95;1.40;;;12.10;66.10;;;;;;5117573;28;20027;-79
2021/05/31 05:44:23;;;;;;;2.88;1.48;;;12.20;67.60;;;;;;5136641;27;20027;-79
2021/05/31 05:48:53;;;;;;;4.07;1.60;;;12.40;66.00;;;;;;5116746;28;20110;-79
2021/05/31 05:51:20;;;;;;;2.15;1.50;;;12.50;66.30;;;;;;5108528;27;20456;-79
2021/05/31 05:53:47;;;;;;;3.88;1.70;;;12.60;66.00;;;;;;5119104;27;20039;-79
2021/05/31 05:56:20;;;;;;;3.05;1.58;;;12.60;65.60;;;;;;5118234;27;20031;-77
2021/05/31 05:58:47;;;;;;;3.00;1.48;;;12.70;66.20;;;;;;5136814;27;20084;-77
2021/05/31 06:01:15;;;;;;;4.05;1.70;;;12.70;65.30;;;;;;5108558;28;20024;-79
2021/05/31 06:03:41;;;;;;;2.95;1.35;;;12.80;65.30;;;;;;5098362;28;20027;-79
2021/05/31 06:06:07;;;;;;;1.63;1.17;;;12.90;64.30;;;;;;5106505;27;20042;-79
2021/05/31 06:08:33;;;;;;;5.20;1.50;;;12.90;63.00;;;;;;5111887;28;20055;-78
2021/05/31 06:10:59;;;;;;;1.92;1.33;;;12.90;63.20;;;;;;5105438;27;20054;-79
2021/05/31 06:13:25;;;;;;;2.30;1.60;;;13.00;62.30;;;;;;5136054;27;20031;-78
2021/05/31 06:15:54;;;;;;;2.30;1.40;;;13.00;63.50;;;;;;5113921;27;20030;-78
2021/05/31 06:18:21;;;;;;;3.17;1.15;;;13.10;62.90;;;;;;5123451;27;20080;-78
2021/05/31 06:20:47;;;;;;;1.42;1.23;;;13.20;63.60;;;;;;5102197;28;20069;-78
2021/05/31 06:23:12;;;;;;;2.72;1.40;;;13.30;63.20;;;;;;5096628;28;20139;-78
2021/05/31 06:25:39;;;;;;;2.05;1.00;;;13.30;63.30;;;;;;5096284;28;20087;-79
2021/05/31 06:28:06;;;;;;;2.78;1.40;;;13.30;63.40;;;;;;5119981;27;20030;-79
2021/05/31 06:30:32;;;;;;;2.50;1.45;;;13.30;63.40;;;;;;5122009;27;20077;-80
2021/05/31 06:32:58;;;;;;;4.25;1.85;;;13.40;64.10;;;;;;5110738;28;20453;-80
2021/05/31 06:35:25;;;;;;;4.18;1.52;;;13.40;64.50;;;;;;5096102;28;20062;-79
2021/05/31 06:37:51;;;;;;;2.97;1.20;;;13.40;63.00;;;;;;5096605;28;20027;-77
2021/05/31 06:40:18;;;;;;;2.10;1.10;;;13.50;63.00;;;;;;5103734;27;20023;-80
2021/05/31 06:42:46;;;;;;;2.30;1.45;;;13.60;63.00;;;;;;5105937;28;20027;-78
2021/05/31 06:45:21;;;;;;;2.85;1.50;;;13.70;63.30;;;;;;5110613;27;20114;-79
2021/05/31 06:47:47;;;;;;;2.75;1.30;;;13.70;62.30;;;;;;5130387;27;20020;-77
2021/05/31 06:50:13;;;;;;;2.33;1.10;;;13.80;62.40;;;;;;5116302;27;20436;-76
2021/05/31 06:52:39;;;;;;;2.95;1.15;;;13.90;61.70;;;;;;5105752;27;20027;-76
2021/05/31 06:55:06;;;;;;;3.10;1.52;;;13.80;62.20;;;;;;5102750;28;20038;-74
2021/05/31 06:57:33;;;;;;;3.38;1.58;;;13.90;62.40;;;;;;5111780;27;20081;-76
2021/05/31 06:59:59;;;;;;;4.50;1.48;;;13.90;62.70;;;;;;5093843;28;20024;-77
2021/05/31 07:02:24;;;;;;;2.85;1.20;;;14.00;62.60;;;;;;5120774;27;20094;-76
2021/05/31 07:04:51;;;;;;;2.22;1.30;;;14.00;62.30;;;;;;5122645;27;20054;-78
2021/05/31 07:07:20;;;;;;;1.77;1.20;;;14.10;60.70;;;;;;5105507;28;20027;-77
2021/05/31 07:09:46;;;;;;;2.05;1.30;;;14.20;61.10;;;;;;5112127;27;20026;-77
2021/05/31 07:12:15;;;;;;;2.15;1.20;;;14.20;61.50;;;;;;5119612;27;20019;-80
2021/05/31 07:14:43;;;;;;;3.13;1.20;;;14.40;60.50;;;;;;5119663;27;20027;-78
2021/05/31 07:17:09;;;;;;;3.63;1.23;;;14.40;60.60;;;;;;5123244;27;20023;-78
2021/05/31 07:19:35;;;;;;;2.05;1.30;;;14.50;60.80;;;;;;5113039;27;20106;-78
2021/05/31 07:22:01;;;;;;;1.98;1.10;;;14.50;60.40;;;;;;5110545;28;20464;-76
2021/05/31 07:24:27;;;;;;;3.85;1.30;;;14.60;59.90;;;;;;5101827;27;20403;-76
2021/05/31 07:26:56;;;;;;;1.85;1.17;;;14.80;60.00;;;;;;5103356;28;20023;-76
2021/05/31 07:29:22;;;;;;;1.80;1.30;;;14.80;58.00;;;;;;5125024;27;20447;-75
2021/05/31 07:31:48;;;;;;;1.92;1.00;;;14.90;58.00;;;;;;5110973;27;20050;-76
2021/05/31 07:34:14;;;;;;;1.77;1.40;;;14.90;59.00;;;;;;5094890;28;20035;-76
2021/05/31 07:36:39;;;;;;;2.20;1.15;;;14.90;60.00;;;;;;5093826;28;20421;-76
2021/05/31 07:39:05;;;;;;;2.33;1.30;;;15.00;59.00;;;;;;5112396;27;20453;-78
2021/05/31 07:41:31;;;;;;;2.00;1.23;;;15.00;57.10;;;;;;5095801;28;20047;-78
2021/05/31 07:43:57;;;;;;;2.05;1.15;;;15.10;57.50;;;;;;5099642;27;20472;-77
2021/05/31 07:46:22;;;;;;;1.88;1.10;;;15.10;58.20;;;;;;5096549;28;20064;-78
2021/05/31 07:48:50;;;;;;;2.47;1.35;;;15.10;58.90;;;;;;5096091;28;20069;-77
2021/05/31 07:51:19;;;;;;;2.00;1.10;;;15.30;56.30;;;;;;5094699;28;20030;-78
2021/05/31 07:53:51;;;;;;;1.17;1.08;;;15.40;56.90;;;;;;5110314;28;20033;-75
2021/05/31 07:56:18;;;;;;;2.55;1.20;;;15.50;56.30;;;;;;5100837;27;20528;-74
2021/05/31 07:58:45;;;;;;;4.22;0.95;;;15.60;54.40;;;;;;5121727;27;20038;-73
2021/05/31 08:01:12;;;;;;;1.20;1.00;;;15.70;55.10;;;;;;5098463;28;20081;-74
2021/05/31 08:03:39;;;;;;;1.83;1.10;;;15.70;54.50;;;;;;5128831;27;20023;-74
2021/05/31 08:06:05;;;;;;;1.02;0.95;;;15.70;54.00;;;;;;5117540;27;20477;-74
2021/05/31 08:08:31;;;;;;;2.35;1.08;;;15.80;55.30;;;;;;5105664;28;20032;-76
2021/05/31 08:10:56;;;;;;;3.20;1.10;;;15.90;54.50;;;;;;5114472;27;20019;-76
2021/05/31 08:13:22;;;;;;;1.92;1.30;;;16.00;52.60;;;;;;5113651;27;20023;-77
2021/05/31 08:15:48;;;;;;;1.48;1.00;;;16.10;50.10;;;;;;5107511;28;20337;-77
2021/05/31 08:18:14;;;;;;;1.88;1.27;;;16.00;51.20;;;;;;5108589;28;20034;-80
2021/05/31 08:20:40;;;;;;;70.03;32.67;;;16.20;51.10;;;;;;5125497;28;20448;-84
2021/05/31 08:23:07;;;;;;;8.80;4.60;;;16.30;50.80;;;;;;5113442;28;20039;-76
2021/05/31 08:25:34;;;;;;;3.05;1.75;;;16.30;51.70;;;;;;5097246;28;20024;-76
2021/05/31 08:28:02;;;;;;;1.80;1.20;;;16.40;50.20;;;;;;5109958;28;20026;-76
2021/05/31 08:30:28;;;;;;;1.60;1.20;;;16.50;50.60;;;;;;5119709;28;20019;-76
2021/05/31 08:32:54;;;;;;;2.30;1.40;;;16.40;50.90;;;;;;5132606;28;20152;-76
2021/05/31 08:35:20;;;;;;;2.28;1.13;;;16.50;51.20;;;;;;5116695;28;20098;-77
2021/05/31 08:37:45;;;;;;;3.50;1.10;;;16.50;50.90;;;;;;5105352;28;20016;-76
2021/05/31 08:40:12;;;;;;;1.60;1.10;;;16.60;49.50;;;;;;5101387;28;20034;-77
2021/05/31 08:42:39;;;;;;;1.27;0.95;;;16.70;48.40;;;;;;5104740;28;20122;-77
2021/05/31 08:45:07;;;;;;;1.42;1.10;;;16.80;47.20;;;;;;5095549;28;20171;-76
2021/05/31 08:47:41;;;;;;;2.08;1.00;;;16.80;49.10;;;;;;5111651;28;20019;-77
2021/05/31 08:50:08;;;;;;;1.50;1.05;;;16.90;49.30;;;;;;5114739;28;20023;-77
2021/05/31 08:52:34;;;;;;;3.08;1.00;;;16.90;47.90;;;;;;5092085;28;20440;-78
2021/05/31 08:55:00;;;;;;;1.45;1.00;;;17.00;48.90;;;;;;5113938;28;20027;-76
2021/05/31 08:57:26;;;;;;;1.27;1.05;;;16.90;49.30;;;;;;5095092;28;20454;-77
2021/05/31 08:59:54;;;;;;;1.58;1.13;;;17.00;47.10;;;;;;5097722;28;20482;-76
2021/05/31 09:02:20;;;;;;;3.63;1.10;;;17.00;47.20;;;;;;5091945;28;20015;-78
2021/05/31 09:04:51;;;;;;;2.72;1.13;;;17.10;48.80;;;;;;5098392;28;20067;-77
2021/05/31 09:07:20;;;;;;;;;;;17.10;47.80;;;;;;5112339;28;20024;-76
2021/05/31 09:09:47;;;;;;;1.30;1.10;;;17.10;47.30;;;;;;5116710;27;19914;-77
2021/05/31 09:12:20;;;;;;;1.73;1.17;;;17.20;46.30;;;;;;5119621;27;20527;-77
2021/05/31 09:14:54;;;;;;;1.25;0.98;;;17.20;48.10;;;;;;5116935;27;20031;-77
2021/05/31 09:17:25;;;;;;;1.83;1.10;;;17.30;46.40;;;;;;5101349;28;20051;-76
2021/05/31 09:19:51;;;;;;;2.25;1.00;;;17.30;46.30;;;;;;5114176;27;20020;-78
2021/05/31 09:22:17;;;;;;;1.95;1.08;;;17.30;46.50;;;;;;5103765;27;20478;-76
2021/05/31 09:24:57;;;;;;;1.75;1.00;;;17.40;47.30;;;;;;5105984;28;20537;-78
2021/05/31 09:27:23;;;;;;;2.50;1.10;;;17.40;46.30;;;;;;5097202;28;20054;-78
2021/05/31 09:30:06;;;;;;;2.05;1.08;;;17.50;46.10;;;;;;5131288;27;20027;-77
2021/05/31 09:32:31;;;;;;;1.60;1.10;;;17.50;43.20;;;;;;5126655;27;20462;-79
2021/05/31 09:34:59;;;;;;;1.55;0.80;;;17.50;44.00;;;;;;5109574;27;20027;-78
2021/05/31 09:37:25;;;;;;;1.27;0.90;;;17.50;46.60;;;;;;5100579;28;20020;-77
2021/05/31 09:40:07;;;;;;;1.67;1.10;;;17.50;47.00;;;;;;5113616;28;20139;-76
2021/05/31 09:42:33;;;;;;;2.63;1.17;;;17.60;46.40;;;;;;5093715;27;20019;-77
2021/05/31 09:45:09;;;;;;;1.05;0.80;;;17.60;45.10;;;;;;5117175;27;20077;-77
2021/05/31 09:47:36;;;;;;;1.27;0.82;;;17.60;46.80;;;;;;5100039;27;20114;-77
2021/05/31 09:50:05;;;;;;;1.13;0.95;;;17.60;43.60;;;;;;5112672;28;20020;-77
2021/05/31 09:52:31;;;;;;;2.13;1.17;;;17.70;46.10;;;;;;5104713;27;20050;-77
2021/05/31 09:54:56;;;;;;;3.00;1.25;;;17.70;46.20;;;;;;5104680;28;20458;-77
2021/05/31 09:57:31;;;;;;;2.00;0.95;;;17.80;45.30;;;;;;5101961;28;20031;-74
2021/05/31 09:59:59;;;;;;;1.70;0.85;;;17.80;45.40;;;;;;5084260;28;20389;-75
2021/05/31 10:02:53;;;;;;;1.77;0.90;;;17.80;47.30;;;;;;5105911;27;20405;-76
2021/05/31 10:10:19;;;;;;;2.22;1.13;;;18.00;46.40;;;;;;5127942;27;20477;-74
2021/05/31 10:12:45;;;;;;;1.67;0.98;;;18.10;46.40;;;;;;5124883;27;20019;-74
2021/05/31 10:15:12;;;;;;;2.83;1.13;;;18.10;46.90;;;;;;5123801;27;20093;-75
2021/05/31 10:17:38;;;;;;;1.77;1.20;;;18.10;44.00;;;;;;5133362;27;20075;-74
2021/05/31 10:20:06;;;;;;;1.52;1.05;;;18.10;45.90;;;;;;5119442;27;20023;-74
2021/05/31 10:22:33;;;;;;;1.73;1.08;;;18.10;45.80;;;;;;5106709;28;20391;-74
2021/05/31 10:25:03;;;;;;;2.15;1.13;;;18.10;43.60;;;;;;5108330;27;20046;-74
2021/05/31 10:27:30;;;;;;;2.92;1.40;;;18.10;43.80;;;;;;5099036;28;20030;-75
2021/05/31 10:29:58;;;;;;;2.92;1.25;;;18.20;44.20;;;;;;5105206;27;20083;-75
2021/05/31 10:32:24;;;;;;;3.05;1.00;;;18.20;45.50;;;;;;5108229;28;20412;-75
2021/05/31 10:34:52;;;;;;;1.67;1.20;;;18.20;45.50;;;;;;5106789;27;20057;-75
2021/05/31 10:37:19;;;;;;;1.30;1.20;;;18.30;45.40;;;;;;5132515;27;20015;-75
2021/05/31 10:39:55;;;;;;;2.00;1.02;;;18.30;46.20;;;;;;5132530;27;20019;-75
2021/05/31 10:42:23;;;;;;;1.45;1.02;;;18.30;43.30;;;;;;5120786;27;20060;-75
2021/05/31 10:44:48;;;;;;;1.92;1.10;;;18.30;42.80;;;;;;5104979;28;20122;-76
2021/05/31 10:47:19;;;;;;;1.77;1.10;;;18.30;46.80;;;;;;5129060;27;20073;-76
2021/05/31 10:49:54;;;;;;;1.25;0.90;;;18.40;46.60;;;;;;5098732;27;20031;-76
2021/05/31 10:52:20;;;;;;;1.40;1.30;;;18.40;44.00;;;;;;5108445;28;20165;-78
2021/05/31 10:54:45;;;;;;;2.72;1.35;;;18.50;44.90;;;;;;5105633;27;20162;-75
2021/05/31 10:57:11;;;;;;;1.55;1.02;;;18.50;47.10;;;;;;5127216;27;20027;-77
2021/05/31 10:59:51;;;;;;;1.90;1.20;;;18.50;44.20;;;;;;5101230;27;20020;-76
2021/05/31 11:02:22;;;;;;;1.75;1.20;;;18.40;44.20;;;;;;5094959;28;20012;-75
2021/05/31 11:04:47;;;;;;;1.93;1.40;;;18.40;47.10;;;;;;5115037;27;20030;-75
2021/05/31 11:07:24;;;;;;;2.72;1.10;;;18.50;45.40;;;;;;5096519;28;20023;-74
2021/05/31 11:09:51;;;;;;;2.17;1.27;;;18.60;46.60;;;;;;5096444;28;20012;-74
2021/05/31 11:12:27;;;;;;;1.95;1.10;;;18.70;46.90;;;;;;5101608;27;20026;-74
2021/05/31 11:15:04;;;;;;;1.35;1.23;;;18.70;44.70;;;;;;5120367;27;20063;-76
2021/05/31 11:17:29;;;;;;;2.67;1.08;;;18.80;46.90;;;;;;5095246;28;20027;-74
2021/05/31 11:19:55;;;;;;;2.05;1.23;;;18.90;46.80;;;;;;5096358;27;20493;-74
2021/05/31 11:22:27;;;;;;;1.13;1.00;;;18.90;45.60;;;;;;5119933;27;20408;-74
2021/05/31 11:24:59;;;;;;;2.17;1.13;;;18.90;46.80;;;;;;5111503;27;20130;-76
2021/05/31 11:27:32;;;;;;;1.98;1.10;;;19.00;47.80;;;;;;5098589;28;20406;-76
2021/05/31 11:29:59;;;;;;;1.40;0.88;;;19.10;45.10;;;;;;5086785;27;20046;-75
2021/05/31 11:32:25;;;;;;;1.20;1.10;;;19.20;47.00;;;;;;5124880;27;20102;-76
2021/05/31 11:34:56;;;;;;;2.58;1.10;;;19.20;44.90;;;;;;5106419;27;20054;-76
2021/05/31 11:37:26;;;;;;;2.65;1.20;;;19.30;47.10;;;;;;5099144;28;20023;-76
2021/05/31 11:39:53;;;;;;;1.58;1.02;;;19.30;47.00;;;;;;5122013;27;20090;-75
2021/05/31 11:42:19;;;;;;;1.67;0.90;;;19.40;45.80;;;;;;5101870;27;20115;-75
2021/05/31 11:44:54;;;;;;;2.08;0.93;;;19.50;44.60;;;;;;5104002;28;20032;-74
2021/05/31 11:47:21;;;;;;;4.50;1.10;;;19.40;44.00;;;;;;5109817;27;20114;-79
2021/05/31 11:49:47;;;;;;;1.10;1.00;;;19.40;44.50;;;;;;5097656;27;20028;-76
2021/05/31 11:52:13;;;;;;;4.57;1.15;;;19.40;45.70;;;;;;5126931;27;20027;-75
2021/05/31 11:54:40;;;;;;;2.78;1.35;;;19.50;44.00;;;;;;5103500;27;20079;-75
2021/05/31 11:57:08;;;;;;;1.50;1.02;;;19.60;45.30;;;;;;5101251;28;20460;-74
2021/05/31 11:59:36;;;;;;;1.20;1.10;;;19.70;46.60;;;;;;5107248;27;20457;-76
2021/05/31 12:02:05;;;;;;;1.20;1.10;;;19.80;47.40;;;;;;5110129;28;20027;-76
2021/05/31 12:04:31;;;;;;;2.03;1.27;;;19.90;46.60;;;;;;5102454;27;20031;-75
2021/05/31 12:07:02;;;;;;;3.08;1.30;;;20.00;48.80;;;;;;5102152;28;20229;-74
2021/05/31 12:09:28;;;;;;;2.63;1.20;;;20.20;46.60;;;;;;5110533;28;20026;-76
2021/05/31 12:11:55;;;;;;;2.33;1.23;;;20.20;46.30;;;;;;5080470;27;20412;-76
2021/05/31 12:14:24;;;;;;;2.75;1.40;;;20.40;46.10;;;;;;5125364;27;20016;-76
2021/05/31 12:16:54;;;;;;;2.15;1.17;;;20.40;44.00;;;;;;5095739;28;20046;-76
2021/05/31 12:19:20;;;;;;;2.47;1.00;;;20.40;43.50;;;;;;5114212;28;20471;-79
2021/05/31 12:21:46;;;;;;;1.60;1.30;;;20.50;44.70;;;;;;5098344;28;20336;-75
2021/05/31 12:24:12;;;;;;;1.75;1.20;;;20.60;45.20;;;;;;5096885;28;20051;-76
2021/05/31 12:26:39;;;;;;;2.83;1.10;;;20.70;46.20;;;;;;5104486;28;20452;-77
2021/05/31 12:29:10;;;;;;;1.40;0.98;;;20.80;43.70;;;;;;5106491;28;20060;-77
2021/05/31 12:31:36;;;;;;;;;;;20.90;46.60;;;;;;5111094;28;20027;-76
2021/05/31 12:34:02;;;;;;;1.92;1.00;;;21.10;44.20;;;;;;5098273;28;19904;-77
2021/05/31 12:36:31;;;;;;;1.27;1.00;;;21.10;44.30;;;;;;5107125;28;20042;-76
2021/05/31 12:38:58;;;;;;;1.33;1.00;;;21.20;42.80;;;;;;5120398;28;20061;-75
2021/05/31 12:41:25;;;;;;;1.20;0.90;;;21.30;43.30;;;;;;5101818;28;20434;-74
2021/05/31 12:43:51;;;;;;;1.35;1.10;;;21.40;44.60;;;;;;5105075;28;20031;-74
2021/05/31 12:46:18;;;;;;;1.58;1.05;;;21.50;41.40;;;;;;5103472;27;20486;-74
2021/05/31 12:48:51;;;;;;;3.15;0.98;;;21.60;40.50;;;;;;5106582;28;20081;-75
2021/05/31 12:51:17;;;;;;;2.00;0.93;;;21.70;42.70;;;;;;5113013;27;20446;-75
2021/05/31 12:53:48;;;;;;;1.35;0.80;;;21.80;39.30;;;;;;5118665;27;20103;-76
2021/05/31 12:56:15;;;;;;;14.27;9.65;;;21.90;41.70;;;;;;5112120;28;20043;-75
2021/05/31 12:58:40;;;;;;;113.35;54.03;;;22.10;40.90;;;;;;5107207;27;20034;-78
2021/05/31 13:01:09;;;;;;;6.28;4.55;;;22.30;41.80;;;;;;5120283;27;20020;-73
2021/05/31 13:03:35;;;;;;;3.50;2.40;;;22.40;41.90;;;;;;5114245;27;20041;-73
2021/05/31 13:06:03;;;;;;;4.13;1.50;;;22.50;37.50;;;;;;5102464;27;20027;-73
2021/05/31 13:08:41;;;;;;;1.40;1.20;;;22.60;40.30;;;;;;5108892;28;20019;-74
2021/05/31 13:11:07;;;;;;;1.48;1.10;;;22.80;39.40;;;;;;5115957;28;20020;-73